This is the latest recevied weather packets stored in our database for station/object DF9PM-13. If no packets are shown the sender has not sent any weather packets the latest 10 day(s).
| Time | Temp. | Humidity | Pressure | Rain* | Wind** | Luminosity | Snow |
|---|---|---|---|---|---|---|---|
| 1777282091 | 20.56° C | 31% | 1022.7 hPa | - | - | - | - |
| 1777281791 | 20° C | 32% | 1022.9 hPa | - | - | - | - |
| 1777281491 | 18.89° C | 32% | 1022.8 hPa | - | - | - | - |
| 1777281191 | 18.33° C | 34% | 1022.9 hPa | - | - | - | - |
| 1777280891 | 16.67° C | 36% | 1022.9 hPa | - | - | - | - |
| 1777280591 | 18.89° C | 33% | 1022.9 hPa | - | - | - | - |
| 1777280291 | 19.44° C | 33% | 1023 hPa | - | - | - | - |
| 1777279990 | 20° C | 32% | 1023 hPa | - | - | - | - |
| 1777279090 | 17.78° C | 36% | 1023.1 hPa | - | - | - | - |
| 1777278790 | 17.78° C | 36% | 1023.2 hPa | - | - | - | - |
| 1777278490 | 17.78° C | 37% | 1023.1 hPa | - | - | - | - |
| 1777278190 | 17.78° C | 36% | 1023.1 hPa | - | - | - | - |
| 1777277890 | 16.11° C | 38% | 1023.2 hPa | - | - | - | - |
| 1777277590 | 16.67° C | 37% | 1023.2 hPa | - | - | - | - |
| 1777277290 | 17.22° C | 38% | 1023.1 hPa | - | - | - | - |
| 1777276990 | 16.67° C | 39% | 1023.2 hPa | - | - | - | - |
| 1777276390 | 15.56° C | 40% | 1023.2 hPa | - | - | - | - |
| 1777276090 | 17.78° C | 38% | 1023.1 hPa | - | - | - | - |
| 1777275790 | 15.56° C | 40% | 1023.3 hPa | - | - | - | - |
| 1777275490 | 15.56° C | 40% | 1023.2 hPa | - | - | - | - |
| 1777275190 | 15° C | 42% | 1023.3 hPa | - | - | - | - |
| 1777274889 | 13.89° C | 43% | 1023.3 hPa | - | - | - | - |
| 1777274589 | 14.44° C | 44% | 1023.3 hPa | - | - | - | - |
| 1777274289 | 14.44° C | 44% | 1023.3 hPa | - | - | - | - |
| 1777273989 | 13.33° C | 47% | 1023.3 hPa | - | - | - | - |
* Rain since midnight (hover to see other rain measurements)
** Current wind speed in m/s (hover to see current wind gust speed)